Pagrindinis puslapis
METAR-TAF:

METAR-TAF

Oro uostai :

Pratica Di Mare, Italija

platuma: 41-39N, ilguma: 012-27E, Aukštis: 6 m

Dabartinis oras

Ataskaita buvo paskelbta 55 minutes, ne 01:55 UTC
Vėjas 6 kt iš Rytų/Pietryčių
Temperatūra 10°C
Drėgmė 93%
Slėgis 1024 hPa
Matomumas 10 km arba daugiau
Mažai debesys ne aukštis 4000 ft
Išsisklaidę debesys ne aukštis 7000 ft

METAR: LIRE 180155Z 11006KT 9999 FEW040 SCT070 10/09 Q1024 RMK BKN VIS MIN 9999 WIND THR13 14005KT WIND THR31 12007KT BLU

Laikas: 03:50 (02:50 UTC)

Prognozė

Ataskaita buvo paskelbta 50 minutes, ne 02:00 UTC
Prognozė galioja nuo 18 metu 03 UTC su 18 metu 12 UTC
Vėjas 10 kt iš Pietų/Pietryčių
Matomumas 10 km arba daugiau
Išsisklaidę debesys ne aukštis 2000 ft
Išsisklaidę debesys ne aukštis 6000 ft
Laikinai
nuo 18 metu 03 UTC su 18 metu 06 UTC
Matomumas: 5000 m
Su prošvaistėmis ne aukštis 2000 ft
lietus

TAF: LIRE 180200Z 1803/1812 16010KT 9999 SCT020 SCT060 TEMPO 1803/1806 5000 RA BKN020

Orai ataskaitas ir orų prognozės (METAR, TAF).

turimą stotys yra geltonos ir raudonos taškus žemėlapyje.

Perkelti pele per norėdami pamatyti stoties vardą.

Tada spustelėkite, norėdami matyti oro stebėjimo ir prognozės.

Norėdami pakeisti žemėlapį: spustelėkite ant žalios mygtukų su juodo kryžiaus žemyn,; žalią mygtuką su brūkšneliu, jei norite nutolinti; arba žalių rodyklių gretimoms žemėlapius.


METAR-TAF: